Ekin-s — TCMW3 — position and weather

sailwx.info

Track history (hours):
 
Tides and Currents Weather Stations Pressure Air Temp Water Temp Dewpoint Dewpoint Depression Visibility Wind Speed Wind Dir Waves Ship Positions

Ekin-s

Last reported at 2016-May-25 22:33 UTC. Time now 2016-May-25 22:39 UTC.
Position N 56°09' E 010°14'.

Length 109 m; draft 5.3 m.

Type: Ship. MMSI: 271042836.

Date/timePositionNaut miles runAvg speedWind from/ knotsBaromVisibWave heightAir tempDewpointWater temp
2016-May-25 22:33N 56°09' E 010°14'0 0.0
2016-May-25 21:32N 56°09' E 010°14'0 0.0
2016-May-25 20:32N 56°09' E 010°14'0 0.0
2016-May-25 19:32N 56°09' E 010°14'0 0.0
2016-May-25 18:32N 56°09' E 010°14'0 0.0
2016-May-25 17:32N 56°09' E 010°14'0 0.0
2016-May-25 16:32N 56°09' E 010°14'0 0.0
2016-May-25 15:32N 56°09' E 010°14'0 0.0
2016-May-25 14:32N 56°09' E 010°14'0 0.0
2016-May-25 13:32N 56°09' E 010°14'0 0.0
2016-May-25 12:32N 56°09' E 010°14'1 0.5
2016-May-25 11:34N 56°10' E 010°14'7 6.6
2016-May-25 10:33N 56°04' E 010°22'1010.0
2016-May-25 09:33N 55°55' E 010°29'1310.0
2016-May-25 08:14N 55°43' E 010°23'2311.8
2016-May-25 06:16N 55°33' E 009°45'47 3.4
2016-May-24 16:26N 55°17' E 011°04'910.7
2016-May-24 15:33N 55°08' E 011°03'1110.9
2016-May-24 14:33N 54°57' E 010°59'1110.7
2016-May-24 13:34N 54°47' E 010°53'1110.8
2016-May-24 12:33N 54°39' E 011°04'1212.3
2016-May-24 11:34N 54°33' E 011°23'1212.0
2016-May-24 10:34N 54°28' E 011°41'1212.1
2016-May-24 09:33N 54°20' E 011°58'1010.0
2016-May-24 08:31N 54°11' E 012°06'2 2.1
2016-May-24 07:31N 54°09' E 012°08'0 0.0
2016-May-24 06:25N 54°09' E 012°08'0 0.0
2016-May-24 05:25N 54°09' E 012°08'0 0.0
2016-May-24 03:31N 54°09' E 012°08'0 0.0
2016-May-24 01:28N 54°09' E 012°08'0 0.0
2016-May-24 00:31N 54°09' E 012°08'0 0.0
2016-May-23 23:31N 54°09' E 012°08'0 0.0
2016-May-23 22:28N 54°09' E 012°08'0 0.0
2016-May-23 20:28N 54°09' E 012°08'0 0.0
2016-May-23 19:22N 54°09' E 012°08'0 0.0
2016-May-23 18:25N 54°09' E 012°08'0 0.0
2016-May-23 17:04N 54°09' E 012°08'0 0.0
2016-May-23 16:31N 54°09' E 012°08'0 0.0
2016-May-23 15:31N 54°09' E 012°08'0 0.0
2016-May-23 14:19N 54°09' E 012°08'1 0.4
2016-May-23 12:32N 54°10' E 012°07'1010.2
2016-May-23 11:33N 54°19' E 011°59'9 8.4
2016-May-23 10:32N 54°26' E 012°06'1312.1
2016-May-23 09:30N 54°37' E 012°16'1212.9
2016-May-23 08:32N 54°44' E 012°34'1812.5
2016-May-23 07:04N 54°51' E 013°03'612.6
2016-May-23 06:33N 54°53' E 013°14'1313.0
2016-May-23 05:33N 54°58' E 013°35'1313.0
2016-May-23 04:33N 55°02' E 013°56'1212.2
2016-May-23 03:33N 55°10' E 014°13'1212.3
2016-May-23 02:33N 55°20' E 014°26'1312.6
2016-May-23 01:33N 55°30' E 014°40'1212.4
2016-May-23 00:33N 55°38' E 014°56'1212.4
2016-May-22 23:33N 55°40' E 015°18'1312.8
2016-May-22 22:33N 55°40' E 015°41'89 4.9
2016-May-22 04:30N 57°02' E 016°42'1010.9
2016-May-22 03:33N 57°12' E 016°50'142 9.5
2016-May-21 12:29N 59°25' E 018°24'6 6.2
2016-May-21 11:28N 59°21' E 018°15'3 0.3
2016-May-21 02:21N 59°19' E 018°10'  
2016-May-18 06:33N 59°21' E 017°29'4 0.2
2016-May-17 13:33N 59°24' E 017°26'237 9.5
2016-May-16 12:30N 55°34' E 015°36'1112.1
2016-May-16 11:33N 55°32' E 015°16'1211.9
2016-May-16 10:33N 55°28' E 014°57'1211.7
2016-May-16 09:33N 55°22' E 014°39'1212.2
2016-May-16 08:33N 55°13' E 014°24'1211.8
2016-May-16 07:33N 55°10' E 014°04'1212.0
2016-May-16 06:33N 55°11' E 013°43'1412.5
2016-May-16 05:26N 55°13' E 013°19'1112.6
2016-May-16 04:33N 55°14' E 012°60'1212.4
2016-May-16 03:34N 55°17' E 012°39'1211.7
2016-May-16 02:33N 55°29' E 012°42'1111.2
2016-May-16 01:33N 55°40' E 012°41'1312.6
2016-May-16 00:33N 55°53' E 012°39'1212.3
2016-May-15 23:33N 56°05' E 012°35'1312.7
2016-May-15 22:34N 56°16' E 012°23'  
Track history (hours):
 
Tides and Currents Weather Stations Pressure Air Temp Water Temp Dewpoint Dewpoint Depression Visibility Wind Speed Wind Dir Waves Ship Positions

Ekin-s

Last reported at 2016-May-25 22:33 UTC. Time now 2016-May-25 22:39 UTC.
Position N 56°09' E 010°14'.

Length 109 m; draft 5.3 m.

Type: Ship. MMSI: 271042836.

Date/timePositionNaut miles runAvg speedWind from/ knotsBaromVisibWave heightAir tempDewpointWater temp
2016-May-25 22:33N 56°09' E 010°14'0 0.0
2016-May-25 21:32N 56°09' E 010°14'0 0.0
2016-May-25 20:32N 56°09' E 010°14'0 0.0
2016-May-25 19:32N 56°09' E 010°14'0 0.0
2016-May-25 18:32N 56°09' E 010°14'0 0.0
2016-May-25 17:32N 56°09' E 010°14'0 0.0
2016-May-25 16:32N 56°09' E 010°14'0 0.0
2016-May-25 15:32N 56°09' E 010°14'0 0.0
2016-May-25 14:32N 56°09' E 010°14'0 0.0
2016-May-25 13:32N 56°09' E 010°14'0 0.0
2016-May-25 12:32N 56°09' E 010°14'1 0.5
2016-May-25 11:34N 56°10' E 010°14'7 6.6
2016-May-25 10:33N 56°04' E 010°22'1010.0
2016-May-25 09:33N 55°55' E 010°29'1310.0
2016-May-25 08:14N 55°43' E 010°23'2311.8
2016-May-25 06:16N 55°33' E 009°45'47 3.4
2016-May-24 16:26N 55°17' E 011°04'910.7
2016-May-24 15:33N 55°08' E 011°03'1110.9
2016-May-24 14:33N 54°57' E 010°59'1110.7
2016-May-24 13:34N 54°47' E 010°53'1110.8
2016-May-24 12:33N 54°39' E 011°04'1212.3
2016-May-24 11:34N 54°33' E 011°23'1212.0
2016-May-24 10:34N 54°28' E 011°41'1212.1
2016-May-24 09:33N 54°20' E 011°58'1010.0
2016-May-24 08:31N 54°11' E 012°06'2 2.1
2016-May-24 07:31N 54°09' E 012°08'0 0.0
2016-May-24 06:25N 54°09' E 012°08'0 0.0
2016-May-24 05:25N 54°09' E 012°08'0 0.0
2016-May-24 03:31N 54°09' E 012°08'0 0.0
2016-May-24 01:28N 54°09' E 012°08'0 0.0
2016-May-24 00:31N 54°09' E 012°08'0 0.0
2016-May-23 23:31N 54°09' E 012°08'0 0.0
2016-May-23 22:28N 54°09' E 012°08'0 0.0
2016-May-23 20:28N 54°09' E 012°08'0 0.0
2016-May-23 19:22N 54°09' E 012°08'0 0.0
2016-May-23 18:25N 54°09' E 012°08'0 0.0
2016-May-23 17:04N 54°09' E 012°08'0 0.0
2016-May-23 16:31N 54°09' E 012°08'0 0.0
2016-May-23 15:31N 54°09' E 012°08'0 0.0
2016-May-23 14:19N 54°09' E 012°08'1 0.4
2016-May-23 12:32N 54°10' E 012°07'1010.2
2016-May-23 11:33N 54°19' E 011°59'9 8.4
2016-May-23 10:32N 54°26' E 012°06'1312.1
2016-May-23 09:30N 54°37' E 012°16'1212.9
2016-May-23 08:32N 54°44' E 012°34'1812.5
2016-May-23 07:04N 54°51' E 013°03'612.6
2016-May-23 06:33N 54°53' E 013°14'1313.0
2016-May-23 05:33N 54°58' E 013°35'1313.0
2016-May-23 04:33N 55°02' E 013°56'1212.2
2016-May-23 03:33N 55°10' E 014°13'1212.3
2016-May-23 02:33N 55°20' E 014°26'1312.6
2016-May-23 01:33N 55°30' E 014°40'1212.4
2016-May-23 00:33N 55°38' E 014°56'1212.4
2016-May-22 23:33N 55°40' E 015°18'1312.8
2016-May-22 22:33N 55°40' E 015°41'89 4.9
2016-May-22 04:30N 57°02' E 016°42'1010.9
2016-May-22 03:33N 57°12' E 016°50'142 9.5
2016-May-21 12:29N 59°25' E 018°24'6 6.2
2016-May-21 11:28N 59°21' E 018°15'3 0.3
2016-May-21 02:21N 59°19' E 018°10'  
2016-May-18 06:33N 59°21' E 017°29'4 0.2
2016-May-17 13:33N 59°24' E 017°26'237 9.5
2016-May-16 12:30N 55°34' E 015°36'1112.1
2016-May-16 11:33N 55°32' E 015°16'1211.9
2016-May-16 10:33N 55°28' E 014°57'1211.7
2016-May-16 09:33N 55°22' E 014°39'1212.2
2016-May-16 08:33N 55°13' E 014°24'1211.8
2016-May-16 07:33N 55°10' E 014°04'1212.0
2016-May-16 06:33N 55°11' E 013°43'1412.5
2016-May-16 05:26N 55°13' E 013°19'1112.6
2016-May-16 04:33N 55°14' E 012°60'1212.4
2016-May-16 03:34N 55°17' E 012°39'1211.7
2016-May-16 02:33N 55°29' E 012°42'1111.2
2016-May-16 01:33N 55°40' E 012°41'1312.6
2016-May-16 00:33N 55°53' E 012°39'1212.3
2016-May-15 23:33N 56°05' E 012°35'1312.7
2016-May-15 22:34N 56°16' E 012°23'  

Dump ship's entire track history